createdAt,value
2019-03-21T00:00:04.481Z,995.03
2019-03-21T00:01:04.792Z,994.97
2019-03-21T00:02:04.960Z,994.89
2019-03-21T00:03:05.023Z,994.78
2019-03-21T00:04:05.321Z,994.92
2019-03-21T00:05:04.952Z,994.89
2019-03-21T00:06:05.406Z,994.89
2019-03-21T00:07:05.353Z,994.86
2019-03-21T00:08:04.694Z,994.86
2019-03-21T00:09:04.823Z,995.06
2019-03-21T00:10:04.594Z,994.92
2019-03-21T00:11:04.722Z,994.97
2019-03-21T00:12:04.984Z,994.83
2019-03-21T00:13:04.902Z,995.00
2019-03-21T00:14:07.713Z,994.95
2019-03-21T00:15:05.282Z,995.00
2019-03-21T00:16:04.500Z,995.06
2019-03-21T00:17:04.668Z,995.06
2019-03-21T00:18:05.237Z,995.06
2019-03-21T00:19:04.933Z,995.06
2019-03-21T00:20:05.402Z,994.89
2019-03-21T00:21:04.506Z,994.97
2019-03-21T00:22:04.873Z,995.06
2019-03-21T00:23:05.053Z,994.97
2019-03-21T00:24:05.384Z,994.97
2019-03-21T00:25:05.165Z,994.84
2019-03-21T00:26:05.473Z,995.00
2019-03-21T00:27:05.874Z,995.12
2019-03-21T00:28:05.299Z,994.95
2019-03-21T00:29:05.199Z,994.84
2019-03-21T00:30:05.388Z,995.14
2019-03-21T00:31:05.365Z,995.03
2019-03-21T00:32:04.657Z,995.09
2019-03-21T00:33:05.435Z,994.98
2019-03-21T00:34:05.426Z,995.06
2019-03-21T00:35:04.555Z,994.98
2019-03-21T00:36:05.202Z,995.14
2019-03-21T00:37:05.283Z,995.00
2019-03-21T00:38:05.568Z,994.92
2019-03-21T00:39:04.625Z,994.98
2019-03-21T00:40:04.696Z,995.17
2019-03-21T00:41:05.025Z,995.17
2019-03-21T00:42:05.136Z,995.06
2019-03-21T00:43:04.808Z,995.06
2019-03-21T00:44:04.949Z,995.12
2019-03-21T00:45:05.018Z,995.01
2019-03-21T00:46:05.207Z,995.03
2019-03-21T00:47:05.181Z,994.92
2019-03-21T00:48:04.581Z,994.92
2019-03-21T00:49:04.636Z,994.95
2019-03-21T00:50:05.254Z,995.01
2019-03-21T00:51:05.270Z,994.95
2019-03-21T00:52:05.179Z,995.06
2019-03-21T00:53:05.187Z,994.98
2019-03-21T00:54:05.259Z,994.98
2019-03-21T00:55:05.370Z,995.17
2019-03-21T00:56:05.331Z,995.09
2019-03-21T00:57:05.062Z,995.01
2019-03-21T00:58:04.673Z,994.95
2019-03-21T00:59:04.954Z,994.95
2019-03-21T01:00:05.030Z,994.95
2019-03-21T01:01:05.038Z,995.09
2019-03-21T01:02:10.327Z,994.92
2019-03-21T01:03:04.748Z,994.95
2019-03-21T01:04:04.938Z,994.87
2019-03-21T01:05:05.515Z,994.92
2019-03-21T01:06:04.604Z,994.98
2019-03-21T01:07:04.931Z,994.70
2019-03-21T01:08:05.123Z,994.84
2019-03-21T01:09:05.361Z,994.78
2019-03-21T01:10:04.466Z,994.78
2019-03-21T01:11:04.770Z,994.81
2019-03-21T01:12:04.916Z,994.84
2019-03-21T01:13:05.389Z,994.81
2019-03-21T01:14:05.460Z,994.73
2019-03-21T01:15:04.611Z,994.81
2019-03-21T01:16:05.245Z,994.84
2019-03-21T01:17:05.318Z,994.76
2019-03-21T01:18:04.602Z,994.78
2019-03-21T01:19:05.144Z,994.78
2019-03-21T01:20:05.310Z,994.73
2019-03-21T01:21:05.353Z,994.76
2019-03-21T01:22:04.962Z,994.78
2019-03-21T01:23:05.431Z,994.70
2019-03-21T01:24:04.836Z,994.70
2019-03-21T01:25:04.635Z,994.63
2019-03-21T01:26:04.742Z,994.70
2019-03-21T01:27:04.820Z,994.54
2019-03-21T01:28:04.896Z,994.57
2019-03-21T01:29:04.830Z,994.60
2019-03-21T01:30:05.037Z,994.70
2019-03-21T01:31:05.415Z,994.57
2019-03-21T01:32:04.883Z,994.68
2019-03-21T01:33:05.306Z,994.54
2019-03-21T01:34:05.434Z,994.60
2019-03-21T01:35:04.856Z,994.52
2019-03-21T01:36:05.282Z,994.49
2019-03-21T01:37:04.772Z,994.43
2019-03-21T01:38:04.886Z,994.54
2019-03-21T01:39:05.610Z,994.57
2019-03-21T01:40:04.669Z,994.49
2019-03-21T01:41:05.308Z,994.43
2019-03-21T01:42:04.766Z,994.66
2019-03-21T01:43:10.449Z,994.54
2019-03-21T01:44:04.825Z,994.66
2019-03-21T01:45:05.059Z,994.63
2019-03-21T01:46:05.058Z,994.57
2019-03-21T01:47:04.793Z,994.49
2019-03-21T01:48:05.043Z,994.54
2019-03-21T01:49:05.383Z,994.49
2019-03-21T01:50:04.571Z,994.57
2019-03-21T01:51:04.690Z,994.57
2019-03-21T01:52:04.785Z,994.52
2019-03-21T01:53:05.172Z,994.46
2019-03-21T01:54:05.405Z,994.49
2019-03-21T01:55:04.827Z,994.54
2019-03-21T01:56:05.022Z,994.38
2019-03-21T01:57:05.183Z,994.43
2019-03-21T01:58:05.370Z,994.52
2019-03-21T01:59:05.428Z,994.35
2019-03-21T02:00:04.573Z,994.38
2019-03-21T02:01:04.671Z,994.55
2019-03-21T02:02:04.820Z,994.57
2019-03-21T02:03:04.910Z,994.49
2019-03-21T02:04:05.423Z,994.38
2019-03-21T02:05:05.355Z,994.49
2019-03-21T02:06:04.601Z,994.35
2019-03-21T02:07:04.587Z,994.49
2019-03-21T02:08:05.198Z,994.44
2019-03-21T02:09:05.389Z,994.32
2019-03-21T02:10:05.411Z,994.32
2019-03-21T02:11:04.736Z,994.38
2019-03-21T02:12:05.427Z,994.27
2019-03-21T02:13:04.928Z,994.27
2019-03-21T02:14:04.550Z,994.30
2019-03-21T02:15:04.820Z,994.44
2019-03-21T02:16:04.820Z,994.27
2019-03-21T02:17:04.914Z,994.27
2019-03-21T02:18:05.097Z,994.32
2019-03-21T02:19:04.590Z,994.21
2019-03-21T02:20:05.463Z,994.49
2019-03-21T02:21:04.891Z,994.32
2019-03-21T02:22:04.859Z,994.38
2019-03-21T02:23:05.031Z,994.41
2019-03-21T02:24:04.581Z,994.35
2019-03-21T02:25:04.617Z,994.44
2019-03-21T02:26:04.963Z,994.21
2019-03-21T02:27:05.175Z,994.32
2019-03-21T02:28:05.184Z,994.27
2019-03-21T02:29:04.974Z,994.21
2019-03-21T02:30:04.949Z,994.30
2019-03-21T02:31:05.245Z,994.38
2019-03-21T02:32:05.308Z,994.21
2019-03-21T02:33:05.457Z,994.19
2019-03-21T02:34:04.665Z,994.19
2019-03-21T02:35:04.963Z,994.24
2019-03-21T02:36:05.261Z,994.35
2019-03-21T02:37:04.519Z,994.46
2019-03-21T02:38:04.783Z,994.38
2019-03-21T02:39:04.632Z,994.30
2019-03-21T02:40:05.135Z,994.38
2019-03-21T02:41:05.275Z,994.30
2019-03-21T02:42:05.275Z,994.33
2019-03-21T02:43:10.383Z,994.21
2019-03-21T02:44:05.135Z,994.27
2019-03-21T02:45:09.869Z,994.27
2019-03-21T02:46:04.576Z,994.27
2019-03-21T02:47:04.892Z,994.24
2019-03-21T02:48:04.925Z,994.10
2019-03-21T02:49:04.662Z,994.21
2019-03-21T02:50:04.619Z,994.27
2019-03-21T02:51:05.158Z,994.21
2019-03-21T02:52:04.749Z,994.13
2019-03-21T02:53:05.381Z,994.19
2019-03-21T02:54:05.515Z,994.16
2019-03-21T02:55:04.594Z,994.21
2019-03-21T02:56:05.467Z,994.22
2019-03-21T02:57:04.531Z,994.27
2019-03-21T02:58:04.775Z,994.13
2019-03-21T02:59:05.423Z,994.27
2019-03-21T03:00:04.741Z,994.16
2019-03-21T03:01:05.591Z,994.16
2019-03-21T03:02:05.309Z,994.19
2019-03-21T03:03:05.330Z,994.44
2019-03-21T03:04:04.696Z,994.33
2019-03-21T03:05:04.806Z,994.22
2019-03-21T03:06:05.245Z,994.33
2019-03-21T03:07:04.965Z,994.30
2019-03-21T03:08:04.610Z,994.30
2019-03-21T03:09:04.712Z,994.24
2019-03-21T03:10:04.903Z,994.24
2019-03-21T03:11:05.297Z,994.30
2019-03-21T03:12:05.515Z,994.10
2019-03-21T03:13:04.508Z,994.30
2019-03-21T03:14:05.216Z,994.24
2019-03-21T03:15:04.645Z,994.30
2019-03-21T03:16:05.092Z,994.33
2019-03-21T03:17:04.668Z,994.41
2019-03-21T03:18:04.757Z,994.30
2019-03-21T03:19:04.885Z,994.30
2019-03-21T03:20:05.062Z,994.30
2019-03-21T03:21:05.043Z,994.52
2019-03-21T03:22:04.587Z,994.30
2019-03-21T03:23:05.232Z,994.44
2019-03-21T03:24:05.242Z,994.36
2019-03-21T03:25:05.359Z,994.41
2019-03-21T03:26:05.052Z,994.52
2019-03-21T03:27:05.283Z,994.47
2019-03-21T03:28:04.449Z,994.44
2019-03-21T03:29:04.693Z,994.41
2019-03-21T03:30:05.425Z,994.41
2019-03-21T03:31:04.540Z,994.36
2019-03-21T03:32:04.854Z,994.36
2019-03-21T03:33:05.191Z,994.36
2019-03-21T03:34:05.244Z,994.41
2019-03-21T03:35:05.664Z,994.30
2019-03-21T03:36:04.576Z,994.41
2019-03-21T03:37:04.643Z,994.41
2019-03-21T03:38:04.821Z,994.41
2019-03-21T03:39:04.826Z,994.44
2019-03-21T03:40:05.343Z,994.53
2019-03-21T03:41:04.530Z,994.39
2019-03-21T03:42:04.974Z,994.39
2019-03-21T03:43:09.696Z,994.44
2019-03-21T03:44:05.212Z,994.44
2019-03-21T03:45:05.227Z,994.44
2019-03-21T03:46:04.981Z,994.44
2019-03-21T03:47:05.106Z,994.44
2019-03-21T03:48:04.570Z,994.33
2019-03-21T03:49:05.246Z,994.44
2019-03-21T03:50:04.719Z,994.55
2019-03-21T03:51:05.045Z,994.50
2019-03-21T03:52:04.521Z,994.39
2019-03-21T03:53:05.125Z,994.39
2019-03-21T03:54:05.201Z,994.39
2019-03-21T03:55:04.640Z,994.50
2019-03-21T03:56:04.659Z,994.53
2019-03-21T03:57:04.744Z,994.39
2019-03-21T03:58:04.893Z,994.36
2019-03-21T03:59:05.056Z,994.47
2019-03-21T04:00:05.529Z,994.44
2019-03-21T04:01:05.077Z,994.47
2019-03-21T04:02:05.228Z,994.53
2019-03-21T04:03:05.589Z,994.33
2019-03-21T04:04:04.573Z,994.44
2019-03-21T04:05:04.594Z,994.44
2019-03-21T04:06:05.490Z,994.33
2019-03-21T04:07:05.341Z,994.47
2019-03-21T04:08:04.683Z,994.50
2019-03-21T04:09:04.831Z,994.50
2019-03-21T04:10:05.282Z,994.58
2019-03-21T04:11:05.341Z,994.47
2019-03-21T04:12:04.992Z,994.50
2019-03-21T04:13:05.142Z,994.58
2019-03-21T04:14:04.670Z,994.47
2019-03-21T04:15:04.723Z,994.53
2019-03-21T04:16:04.800Z,994.53
2019-03-21T04:17:05.247Z,994.55
2019-03-21T04:18:05.387Z,994.53
2019-03-21T04:19:05.512Z,994.64
2019-03-21T04:20:04.683Z,994.44
2019-03-21T04:21:04.815Z,994.53
2019-03-21T04:22:05.185Z,994.53
2019-03-21T04:23:05.241Z,994.44
2019-03-21T04:24:04.556Z,994.44
2019-03-21T04:25:05.089Z,994.53
2019-03-21T04:26:05.509Z,994.56
2019-03-21T04:27:04.644Z,994.42
2019-03-21T04:28:04.758Z,994.56
2019-03-21T04:29:05.212Z,994.31
2019-03-21T04:30:04.661Z,994.42
2019-03-21T04:31:04.876Z,994.47
2019-03-21T04:32:04.501Z,994.36
2019-03-21T04:33:04.944Z,994.53
2019-03-21T04:34:05.393Z,994.50
2019-03-21T04:35:04.483Z,994.45
2019-03-21T04:36:04.860Z,994.45
2019-03-21T04:37:05.039Z,994.42
2019-03-21T04:38:05.053Z,994.36
2019-03-21T04:39:04.727Z,994.42
2019-03-21T04:40:05.343Z,994.45
2019-03-21T04:41:05.021Z,994.58
2019-03-21T04:42:05.239Z,994.42
2019-03-21T04:43:05.341Z,994.31
2019-03-21T04:44:04.501Z,994.33
2019-03-21T04:45:04.651Z,994.45
2019-03-21T04:46:04.986Z,994.31
2019-03-21T04:47:04.988Z,994.28
2019-03-21T04:48:05.209Z,994.33
2019-03-21T04:49:05.770Z,994.59
2019-03-21T04:50:04.814Z,994.33
2019-03-21T04:51:04.887Z,994.25
2019-03-21T04:52:05.429Z,994.42
2019-03-21T04:53:04.818Z,994.33
2019-03-21T04:54:05.257Z,994.42
2019-03-21T04:55:05.477Z,994.50
2019-03-21T04:56:04.926Z,994.39
2019-03-21T04:57:05.489Z,994.34
2019-03-21T04:58:05.062Z,994.31
2019-03-21T04:59:05.461Z,994.39
2019-03-21T05:00:04.596Z,994.31
2019-03-21T05:01:04.728Z,994.20
2019-03-21T05:02:05.051Z,994.31
2019-03-21T05:03:05.566Z,994.34
2019-03-21T05:04:04.651Z,994.31
2019-03-21T05:05:04.877Z,994.39
2019-03-21T05:06:05.126Z,994.34
2019-03-21T05:07:05.583Z,994.45
2019-03-21T05:08:04.604Z,994.39
2019-03-21T05:09:05.414Z,994.53
2019-03-21T05:10:04.997Z,994.47
2019-03-21T05:11:04.718Z,994.31
2019-03-21T05:12:05.410Z,994.36
2019-03-21T05:13:05.073Z,994.47
2019-03-21T05:14:05.352Z,994.47
2019-03-21T05:15:05.531Z,994.53
2019-03-21T05:16:15.225Z,994.47
2019-03-21T05:17:04.934Z,994.47
2019-03-21T05:18:10.322Z,994.34
2019-03-21T05:19:04.760Z,994.34
2019-03-21T05:20:05.396Z,994.42
2019-03-21T05:21:04.665Z,994.59
2019-03-21T05:22:05.156Z,994.36
2019-03-21T05:23:05.149Z,994.42
2019-03-21T05:24:04.544Z,994.47
2019-03-21T05:25:05.315Z,994.39
2019-03-21T05:26:04.724Z,994.53
2019-03-21T05:27:05.073Z,994.47
2019-03-21T05:28:05.641Z,994.50
2019-03-21T05:29:05.338Z,994.39
2019-03-21T05:30:05.343Z,994.56
2019-03-21T05:31:05.129Z,994.53
2019-03-21T05:32:05.770Z,994.47
2019-03-21T05:33:05.140Z,994.59
2019-03-21T05:34:05.424Z,994.64
2019-03-21T05:35:04.983Z,994.59
2019-03-21T05:36:05.678Z,994.59
2019-03-21T05:37:04.650Z,994.59
2019-03-21T05:38:05.338Z,994.72
2019-03-21T05:39:05.085Z,994.71
2019-03-21T05:40:05.347Z,994.67
2019-03-21T05:41:05.420Z,994.56
2019-03-21T05:42:04.795Z,994.59
2019-03-21T05:43:09.927Z,994.56
2019-03-21T05:44:05.382Z,994.64
2019-03-21T05:45:04.921Z,994.74
2019-03-21T05:46:05.251Z,994.50
2019-03-21T05:47:05.295Z,994.77
2019-03-21T05:48:05.094Z,994.77
2019-03-21T05:49:04.604Z,994.69
2019-03-21T05:50:05.493Z,994.77
2019-03-21T05:51:04.911Z,994.82
2019-03-21T05:52:05.211Z,994.77
2019-03-21T05:53:05.253Z,994.77
2019-03-21T05:54:05.286Z,994.74
2019-03-21T05:55:04.878Z,994.90
2019-03-21T05:56:05.260Z,994.71
2019-03-21T05:57:05.412Z,994.71
2019-03-21T05:58:05.029Z,994.76
2019-03-21T05:59:04.566Z,994.87
2019-03-21T06:00:04.722Z,994.87
2019-03-21T06:01:04.960Z,994.70
2019-03-21T06:02:04.989Z,994.87
2019-03-21T06:03:10.258Z,994.86
2019-03-21T06:04:04.630Z,994.95
2019-03-21T06:05:05.299Z,994.94
2019-03-21T06:06:05.584Z,995.08
2019-03-21T06:07:05.674Z,995.05
2019-03-21T06:08:04.725Z,994.94
2019-03-21T06:09:04.825Z,995.08
2019-03-21T06:10:05.021Z,995.16
2019-03-21T06:11:04.635Z,995.07
2019-03-21T06:12:05.198Z,995.07
2019-03-21T06:13:05.281Z,995.15
2019-03-21T06:14:04.548Z,995.12
2019-03-21T06:15:05.161Z,995.15
2019-03-21T06:16:05.553Z,995.01
2019-03-21T06:17:05.645Z,995.18
2019-03-21T06:18:04.640Z,995.12
2019-03-21T06:19:04.763Z,995.23
2019-03-21T06:20:05.106Z,995.03
2019-03-21T06:21:04.744Z,995.17
2019-03-21T06:22:04.923Z,995.20
2019-03-21T06:23:04.703Z,995.14
2019-03-21T06:24:04.880Z,995.14
2019-03-21T06:25:05.060Z,995.22
2019-03-21T06:26:04.565Z,995.16
2019-03-21T06:27:15.080Z,995.19
2019-03-21T06:28:04.740Z,995.30
2019-03-21T06:29:04.596Z,995.27
2019-03-21T06:30:04.780Z,995.22
2019-03-21T06:31:05.155Z,995.22
2019-03-21T06:32:05.218Z,995.16
2019-03-21T06:33:05.271Z,995.38
2019-03-21T06:34:05.018Z,995.27
2019-03-21T06:35:05.125Z,995.27
2019-03-21T06:36:05.210Z,995.35
2019-03-21T06:37:05.129Z,995.30
2019-03-21T06:38:04.583Z,995.32
2019-03-21T06:39:04.806Z,995.32
2019-03-21T06:40:04.796Z,995.29
2019-03-21T06:41:05.528Z,995.26
2019-03-21T06:42:05.017Z,995.35
2019-03-21T06:43:05.522Z,995.35
2019-03-21T06:44:04.937Z,995.37
2019-03-21T06:45:04.583Z,995.20
2019-03-21T06:46:04.968Z,995.32
2019-03-21T06:47:05.545Z,995.40
2019-03-21T06:48:05.581Z,995.34
2019-03-21T06:49:05.061Z,995.34
2019-03-21T06:50:05.060Z,995.34
2019-03-21T06:51:05.518Z,995.48
2019-03-21T06:52:04.963Z,995.31
2019-03-21T06:53:05.068Z,995.34
2019-03-21T06:54:04.781Z,995.34
2019-03-21T06:55:04.869Z,995.25
2019-03-21T06:56:05.098Z,995.31
2019-03-21T06:57:05.301Z,995.34
2019-03-21T06:58:05.422Z,995.34
2019-03-21T06:59:04.795Z,995.39
2019-03-21T07:00:05.254Z,995.25
2019-03-21T07:01:04.952Z,995.36
2019-03-21T07:02:05.411Z,995.31
2019-03-21T07:03:04.966Z,995.39
2019-03-21T07:04:07.869Z,995.42
2019-03-21T07:05:04.645Z,995.39
2019-03-21T07:06:04.922Z,995.39
2019-03-21T07:07:08.930Z,995.39
2019-03-21T07:08:05.564Z,995.42
2019-03-21T07:09:04.740Z,995.36
2019-03-21T07:10:04.924Z,995.50
2019-03-21T07:11:05.585Z,995.42
2019-03-21T07:12:04.812Z,995.13
2019-03-21T07:13:05.303Z,995.36
2019-03-21T07:14:05.039Z,995.36
2019-03-21T07:15:05.285Z,995.41
2019-03-21T07:16:05.644Z,995.39
2019-03-21T07:17:04.792Z,995.53
2019-03-21T07:18:04.914Z,995.44
2019-03-21T07:19:05.565Z,995.47
2019-03-21T07:20:04.793Z,995.41
2019-03-21T07:21:05.298Z,995.47
2019-03-21T07:22:05.451Z,995.36
2019-03-21T07:23:04.825Z,995.33
2019-03-21T07:24:05.231Z,995.44
2019-03-21T07:25:05.360Z,995.41
2019-03-21T07:26:07.204Z,995.44
2019-03-21T07:27:04.797Z,995.47
2019-03-21T07:28:05.339Z,995.27
2019-03-21T07:29:05.108Z,995.53
2019-03-21T07:30:05.456Z,995.44
2019-03-21T07:31:04.663Z,995.44
2019-03-21T07:32:04.766Z,995.47
2019-03-21T07:33:05.378Z,995.44
2019-03-21T07:34:04.711Z,995.47
2019-03-21T07:35:04.969Z,995.50
2019-03-21T07:36:05.031Z,995.44
2019-03-21T07:37:04.727Z,995.44
2019-03-21T07:38:05.040Z,995.41
2019-03-21T07:39:05.074Z,995.41
2019-03-21T07:40:05.470Z,995.35
2019-03-21T07:41:05.361Z,995.41
2019-03-21T07:42:04.636Z,995.47
2019-03-21T07:43:10.104Z,995.38
2019-03-21T07:44:04.611Z,995.35
2019-03-21T07:45:05.365Z,995.41
2019-03-21T07:46:05.500Z,995.52
2019-03-21T07:47:13.611Z,995.47
2019-03-21T07:48:05.799Z,995.38
2019-03-21T07:49:05.618Z,995.41
2019-03-21T07:50:04.551Z,995.41
2019-03-21T07:51:05.268Z,995.49
2019-03-21T07:52:05.290Z,995.49
2019-03-21T07:53:05.513Z,995.44
2019-03-21T07:54:04.943Z,995.46
2019-03-21T07:55:05.043Z,995.46
2019-03-21T07:56:04.704Z,995.52
2019-03-21T07:57:04.793Z,995.55
2019-03-21T07:58:04.701Z,995.63
2019-03-21T07:59:05.458Z,995.52
2019-03-21T08:00:04.898Z,995.68
2019-03-21T08:01:05.509Z,995.65
2019-03-21T08:02:04.661Z,995.44
2019-03-21T08:03:04.979Z,995.55
2019-03-21T08:04:05.541Z,995.55
2019-03-21T08:05:05.306Z,995.63
2019-03-21T08:06:05.006Z,995.46
2019-03-21T08:07:05.270Z,995.52
2019-03-21T08:08:05.453Z,995.49
2019-03-21T08:09:10.518Z,995.49
2019-03-21T08:10:05.065Z,995.41
2019-03-21T08:11:04.869Z,995.62
2019-03-21T08:12:05.325Z,995.55
2019-03-21T08:13:04.486Z,995.57
2019-03-21T08:14:04.661Z,995.55
2019-03-21T08:15:04.879Z,995.49
2019-03-21T08:16:05.159Z,995.49
2019-03-21T08:17:05.231Z,995.52
2019-03-21T08:18:05.460Z,995.54
2019-03-21T08:19:04.726Z,995.54
2019-03-21T08:20:04.933Z,995.49
2019-03-21T08:21:04.672Z,995.40
2019-03-21T08:22:04.869Z,995.49
2019-03-21T08:23:05.051Z,995.54
2019-03-21T08:24:05.124Z,995.54
2019-03-21T08:25:04.696Z,995.51
2019-03-21T08:26:04.929Z,995.62
2019-03-21T08:27:05.495Z,995.54
2019-03-21T08:28:05.168Z,995.57
2019-03-21T08:29:05.560Z,995.65
2019-03-21T08:30:04.657Z,995.46
2019-03-21T08:31:05.505Z,995.46
2019-03-21T08:32:05.162Z,995.51
2019-03-21T08:33:04.958Z,995.51
2019-03-21T08:34:05.075Z,995.48
2019-03-21T08:35:05.273Z,995.48
2019-03-21T08:36:04.836Z,995.54
2019-03-21T08:37:05.128Z,995.73
2019-03-21T08:38:05.322Z,995.54
2019-03-21T08:39:05.481Z,995.57
2019-03-21T08:40:05.137Z,995.54
2019-03-21T08:41:05.350Z,995.57
2019-03-21T08:42:05.374Z,995.73
2019-03-21T08:43:10.501Z,995.54
2019-03-21T08:44:04.939Z,995.61
2019-03-21T08:45:05.030Z,995.61
2019-03-21T08:46:05.119Z,995.67
2019-03-21T08:47:04.887Z,995.64
2019-03-21T08:48:05.441Z,995.67
2019-03-21T08:49:04.842Z,995.61
2019-03-21T08:50:05.489Z,995.56
2019-03-21T08:51:09.092Z,995.67
2019-03-21T08:52:05.429Z,995.70
2019-03-21T08:53:05.498Z,995.61
2019-03-21T08:54:04.565Z,995.67
2019-03-21T08:55:04.805Z,995.56
2019-03-21T08:56:04.937Z,995.67
2019-03-21T08:57:04.802Z,995.56
2019-03-21T08:58:04.833Z,995.56
2019-03-21T08:59:05.170Z,995.61
2019-03-21T09:00:04.698Z,995.61
2019-03-21T09:01:05.390Z,995.64
2019-03-21T09:02:04.564Z,995.70
2019-03-21T09:03:05.295Z,995.67
2019-03-21T09:04:05.345Z,995.64
2019-03-21T09:05:05.018Z,995.61
2019-03-21T09:06:04.584Z,995.69
2019-03-21T09:07:04.874Z,995.75
2019-03-21T09:08:05.028Z,995.47
2019-03-21T09:09:04.745Z,995.47
2019-03-21T09:10:04.840Z,995.44
2019-03-21T09:11:05.171Z,995.72
2019-03-21T09:12:04.949Z,995.61
2019-03-21T09:13:04.847Z,995.50
2019-03-21T09:14:04.888Z,995.63
2019-03-21T09:15:07.988Z,995.61
2019-03-21T09:16:05.145Z,995.66
2019-03-21T09:17:10.679Z,995.69
2019-03-21T09:18:05.187Z,995.66
2019-03-21T09:19:05.243Z,995.63
2019-03-21T09:20:04.602Z,995.53
2019-03-21T09:21:05.213Z,995.50
2019-03-21T09:22:04.770Z,995.60
2019-03-21T09:23:04.789Z,995.69
2019-03-21T09:24:05.509Z,995.44
2019-03-21T09:25:05.278Z,995.60
2019-03-21T09:26:05.031Z,995.60
2019-03-21T09:27:05.476Z,995.60
2019-03-21T09:28:05.043Z,995.63
2019-03-21T09:29:05.111Z,995.50
2019-03-21T09:30:05.115Z,995.50
2019-03-21T09:31:04.632Z,995.44
2019-03-21T09:32:04.723Z,995.41
2019-03-21T09:33:04.973Z,995.49
2019-03-21T09:34:05.221Z,995.38
2019-03-21T09:35:05.196Z,995.47
2019-03-21T09:36:05.406Z,995.38
2019-03-21T09:37:04.797Z,995.41
2019-03-21T09:38:04.921Z,995.49
2019-03-21T09:39:04.731Z,995.44
2019-03-21T09:40:05.150Z,995.46
2019-03-21T09:41:05.264Z,995.41
2019-03-21T09:42:04.955Z,995.32
2019-03-21T09:43:04.547Z,995.43
2019-03-21T09:44:04.604Z,995.41
2019-03-21T09:45:05.404Z,995.35
2019-03-21T09:46:05.483Z,995.35
2019-03-21T09:47:04.989Z,995.49
2019-03-21T09:48:05.189Z,995.55
2019-03-21T09:49:05.541Z,995.40
2019-03-21T09:50:05.139Z,995.62
2019-03-21T09:51:10.362Z,995.52
2019-03-21T09:52:04.791Z,995.40
2019-03-21T09:53:05.424Z,995.49
2019-03-21T09:54:10.229Z,995.46
2019-03-21T09:55:04.785Z,995.55
2019-03-21T09:56:05.041Z,995.46
2019-03-21T09:57:05.505Z,995.46
2019-03-21T09:58:04.791Z,995.43
2019-03-21T09:59:04.654Z,995.34
2019-03-21T10:00:04.934Z,995.46
2019-03-21T10:01:05.389Z,995.43
2019-03-21T10:02:04.513Z,995.34
2019-03-21T10:03:04.652Z,995.26
2019-03-21T10:04:04.771Z,995.37
2019-03-21T10:05:04.981Z,995.49
2019-03-21T10:06:04.976Z,995.31
2019-03-21T10:07:05.563Z,995.23
2019-03-21T10:08:04.599Z,995.31
2019-03-21T10:09:05.285Z,995.31
2019-03-21T10:10:05.388Z,995.20
2019-03-21T10:11:04.735Z,995.51
2019-03-21T10:12:05.056Z,995.25
2019-03-21T10:13:04.554Z,995.28
2019-03-21T10:14:05.329Z,995.23
2019-03-21T10:15:04.785Z,995.25
2019-03-21T10:16:05.495Z,995.20
2019-03-21T10:17:04.655Z,995.17
2019-03-21T10:18:04.830Z,995.31
2019-03-21T10:19:05.509Z,995.28
2019-03-21T10:20:04.664Z,995.20
2019-03-21T10:21:04.975Z,995.22
2019-03-21T10:22:05.015Z,995.22
2019-03-21T10:23:05.009Z,995.14
2019-03-21T10:24:05.277Z,995.17
2019-03-21T10:25:04.730Z,995.22
2019-03-21T10:26:05.332Z,995.08
2019-03-21T10:27:04.503Z,995.16
2019-03-21T10:28:05.183Z,995.22
2019-03-21T10:29:04.965Z,995.14
2019-03-21T10:30:05.084Z,995.16
2019-03-21T10:31:05.288Z,995.14
2019-03-21T10:32:14.785Z,995.16
2019-03-21T10:33:04.621Z,995.16
2019-03-21T10:34:04.682Z,995.28
2019-03-21T10:35:05.143Z,995.25
2019-03-21T10:36:05.360Z,995.22
2019-03-21T10:37:04.627Z,995.08
2019-03-21T10:38:04.763Z,995.05
2019-03-21T10:39:04.875Z,995.13
2019-03-21T10:40:05.087Z,995.13
2019-03-21T10:41:05.117Z,995.16
2019-03-21T10:42:05.350Z,995.22
2019-03-21T10:43:11.175Z,995.13
2019-03-21T10:44:04.640Z,995.13
2019-03-21T10:45:05.024Z,995.16
2019-03-21T10:46:05.347Z,995.02
2019-03-21T10:47:04.554Z,995.07
2019-03-21T10:48:04.920Z,995.25
2019-03-21T10:49:04.988Z,995.16
2019-03-21T10:50:05.363Z,995.05
2019-03-21T10:51:04.793Z,995.05
2019-03-21T10:52:05.002Z,995.04
2019-03-21T10:53:04.593Z,995.10
2019-03-21T10:54:04.619Z,995.07
2019-03-21T10:55:05.074Z,995.10
2019-03-21T10:56:05.414Z,995.16
2019-03-21T10:57:04.586Z,995.10
2019-03-21T10:58:05.168Z,995.16
2019-03-21T10:59:05.120Z,994.99
2019-03-21T11:00:04.726Z,995.10
2019-03-21T11:01:04.815Z,995.07
2019-03-21T11:02:08.017Z,995.02
2019-03-21T11:03:04.623Z,995.02
2019-03-21T11:04:05.408Z,994.99
2019-03-21T11:05:04.735Z,995.04
2019-03-21T11:06:04.869Z,995.07
2019-03-21T11:07:05.056Z,994.96
2019-03-21T11:08:05.340Z,994.87
2019-03-21T11:09:04.602Z,994.93
2019-03-21T11:10:04.893Z,994.93
2019-03-21T11:11:04.884Z,994.93
2019-03-21T11:12:04.655Z,994.73
2019-03-21T11:13:04.725Z,994.81
2019-03-21T11:14:04.801Z,994.90
2019-03-21T11:15:04.599Z,994.87
2019-03-21T11:16:04.952Z,994.75
2019-03-21T11:17:05.031Z,994.90
2019-03-21T11:18:05.193Z,994.87
2019-03-21T11:19:04.738Z,994.84
2019-03-21T11:20:05.239Z,994.98
2019-03-21T11:21:04.820Z,994.87
2019-03-21T11:22:07.071Z,994.84
2019-03-21T11:23:04.887Z,994.78
2019-03-21T11:24:05.597Z,994.81
2019-03-21T11:25:04.651Z,994.78
2019-03-21T11:26:05.487Z,994.81
2019-03-21T11:27:05.521Z,994.75
2019-03-21T11:28:05.432Z,994.75
2019-03-21T11:29:04.855Z,994.75
2019-03-21T11:30:16.519Z,994.75
2019-03-21T11:31:05.236Z,994.67
2019-03-21T11:32:05.368Z,994.67
2019-03-21T11:33:05.569Z,994.86
2019-03-21T11:34:04.903Z,994.72
2019-03-21T11:35:05.460Z,994.67
2019-03-21T11:36:05.460Z,994.80
2019-03-21T11:37:04.811Z,994.69
2019-03-21T11:38:05.468Z,994.64
2019-03-21T11:39:05.408Z,994.77
2019-03-21T11:40:04.530Z,994.72
2019-03-21T11:41:04.738Z,994.69
2019-03-21T11:42:04.840Z,994.77
2019-03-21T11:43:10.047Z,994.64
2019-03-21T11:44:05.447Z,994.64
2019-03-21T11:45:04.632Z,994.55
2019-03-21T11:46:04.881Z,994.55
2019-03-21T11:47:05.148Z,994.61
2019-03-21T11:48:05.233Z,994.50
2019-03-21T11:49:04.907Z,994.49
2019-03-21T11:50:05.007Z,994.58
2019-03-21T11:51:05.482Z,994.52
2019-03-21T11:52:04.846Z,994.67
2019-03-21T11:53:05.232Z,994.49
2019-03-21T11:54:04.854Z,994.49
2019-03-21T11:55:05.071Z,994.55
2019-03-21T11:56:05.472Z,994.44
2019-03-21T11:57:05.624Z,994.52
2019-03-21T11:58:04.598Z,994.44
2019-03-21T11:59:04.777Z,994.35
2019-03-21T12:00:05.143Z,994.38
2019-03-21T12:01:05.487Z,994.44
2019-03-21T12:02:04.766Z,994.35
2019-03-21T12:03:10.224Z,994.38
2019-03-21T12:04:04.743Z,994.29
2019-03-21T12:05:05.165Z,994.35
2019-03-21T12:06:05.259Z,994.32
2019-03-21T12:07:05.375Z,994.35
2019-03-21T12:08:05.165Z,994.38
2019-03-21T12:09:05.053Z,994.32
2019-03-21T12:10:05.413Z,994.32
2019-03-21T12:11:04.878Z,994.40
2019-03-21T12:12:05.352Z,994.38
2019-03-21T12:13:05.479Z,994.23
2019-03-21T12:14:04.660Z,994.26
2019-03-21T12:15:04.822Z,994.15
2019-03-21T12:16:04.967Z,994.29
2019-03-21T12:17:05.294Z,994.23
2019-03-21T12:18:05.031Z,994.32
2019-03-21T12:19:05.158Z,994.15
2019-03-21T12:20:05.202Z,994.17
2019-03-21T12:21:04.545Z,994.23
2019-03-21T12:22:05.100Z,994.09
2019-03-21T12:23:05.362Z,994.23
2019-03-21T12:24:05.392Z,994.26
2019-03-21T12:25:04.761Z,994.09
2019-03-21T12:26:04.752Z,994.15
2019-03-21T12:27:05.025Z,994.12
2019-03-21T12:28:05.192Z,994.23